Time;durP1;ratioP1;P1;durP2;ratioP2;P2;SDS_P1;SDS_P2;PMS_P1;PMS_P2;Temp;Humidity;BMP_temperature;BMP_pressure;BME280_temperature;BME280_humidity;BME280_pressure;Samples;Min_cycle;Max_cycle;Signal;HPM_P1;HPM_P2
2023/09/19 00:00:37;;;;;;;17.58;9.13;;;19.20;99.90;;;;;;5004828;28;20375;-71
2023/09/19 00:03:04;;;;;;;7.55;3.47;;;19.20;99.90;;;;;;4995758;28;20575;-72
2023/09/19 00:05:34;;;;;;;7.90;4.07;;;19.00;99.90;;;;;;4991505;28;20606;-72
2023/09/19 00:08:01;;;;;;;5.63;2.00;;;19.00;99.90;;;;;;5006134;28;20022;-72
2023/09/19 00:10:30;;;;;;;7.15;2.05;;;18.90;99.90;;;;;;4992745;28;20041;-71
2023/09/19 00:12:57;;;;;;;4.88;1.63;;;19.00;99.90;;;;;;4993130;28;20029;-72
2023/09/19 00:15:23;;;;;;;5.68;1.88;;;18.90;99.90;;;;;;4994738;28;20022;-72
2023/09/19 00:17:52;;;;;;;5.90;1.80;;;18.90;99.90;;;;;;4996615;28;20052;-71
2023/09/19 00:20:18;;;;;;;5.50;1.65;;;18.90;99.90;;;;;;4994068;28;20428;-72
2023/09/19 00:22:44;;;;;;;3.55;1.20;;;18.90;99.90;;;;;;4997801;28;20026;-72
2023/09/19 00:25:11;;;;;;;5.88;2.03;;;18.90;99.90;;;;;;5001707;28;20029;-71
2023/09/19 00:27:42;;;;;;;4.03;2.05;;;18.80;99.90;;;;;;4992456;28;20029;-71
2023/09/19 00:30:15;;;;;;;5.80;2.08;;;18.80;99.90;;;;;;4990776;28;20049;-72
2023/09/19 00:32:42;;;;;;;5.05;1.95;;;18.70;99.90;;;;;;4993224;28;20081;-71
2023/09/19 00:35:11;;;;;;;6.43;1.85;;;18.70;99.90;;;;;;4990627;28;20396;-71
2023/09/19 00:37:39;;;;;;;6.38;1.75;;;18.60;99.90;;;;;;4990377;28;20038;-71
2023/09/19 00:40:06;;;;;;;4.78;1.58;;;18.70;99.90;;;;;;4993096;28;20026;-72
2023/09/19 00:42:33;;;;;;;5.90;1.55;;;18.60;99.90;;;;;;4993654;28;20033;-71
2023/09/19 00:45:03;;;;;;;3.33;1.70;;;18.60;99.90;;;;;;4998272;28;20076;-71
2023/09/19 00:47:29;;;;;;;5.22;1.80;;;18.60;99.90;;;;;;4990635;28;20480;-71
2023/09/19 00:49:56;;;;;;;4.20;1.48;;;18.70;99.90;;;;;;4990522;28;20038;-71
2023/09/19 00:52:23;;;;;;;3.72;1.75;;;18.60;99.90;;;;;;4989037;28;20026;-72
2023/09/19 00:54:50;;;;;;;4.30;1.63;;;18.60;99.90;;;;;;4988837;28;20117;-72
2023/09/19 00:57:19;;;;;;;4.55;1.48;;;18.50;99.90;;;;;;4994656;28;20038;-72
2023/09/19 00:59:48;;;;;;;4.32;1.88;;;18.40;99.90;;;;;;4995720;28;20031;-71
2023/09/19 01:02:14;;;;;;;6.60;1.55;;;18.40;99.90;;;;;;4988995;28;20049;-71
2023/09/19 01:04:40;;;;;;;3.75;1.42;;;18.50;99.90;;;;;;4993506;28;20034;-72
2023/09/19 01:07:08;;;;;;;7.53;1.75;;;18.40;99.90;;;;;;4996679;28;20161;-71
2023/09/19 01:09:34;;;;;;;6.18;2.00;;;18.40;99.90;;;;;;4990993;28;20494;-71
2023/09/19 01:12:05;;;;;;;3.70;1.67;;;18.50;99.90;;;;;;4990297;28;20038;-72
2023/09/19 01:14:34;;;;;;;4.43;1.60;;;18.50;99.90;;;;;;4996285;28;20026;-71
2023/09/19 01:17:22;;;;;;;3.85;1.60;;;18.40;99.90;;;;;;4996024;28;20460;-72
2023/09/19 01:20:19;;;;;;;4.60;1.90;;;18.50;99.90;;;;;;4998213;28;20030;-71
2023/09/19 01:23:14;;;;;;;8.15;2.45;;;18.60;99.90;;;;;;4995923;28;20436;-72
2023/09/19 01:26:00;;;;;;;9.68;1.88;;;18.40;99.90;;;;;;4958022;28;20046;-72
2023/09/19 01:29:25;;;;;;;4.68;1.42;;;18.30;99.90;;;;;;4991896;28;20037;-72
2023/09/19 01:31:54;;;;;;;3.92;1.58;;;18.40;99.90;;;;;;4966640;28;20035;-71
2023/09/19 01:34:20;;;;;;;5.47;1.40;;;18.40;99.90;;;;;;4965050;28;20477;-71
2023/09/19 01:36:46;;;;;;;5.20;1.30;;;18.40;99.90;;;;;;4984491;28;20044;-71
2023/09/19 01:39:15;;;;;;;3.83;1.15;;;18.30;99.90;;;;;;4997194;28;20030;-72
2023/09/19 01:41:49;;;;;;;3.50;1.08;;;18.20;99.90;;;;;;4991738;28;20026;-71
2023/09/19 01:44:29;;;;;;;5.55;1.75;;;18.30;99.90;;;;;;4988721;28;20069;-71
2023/09/19 01:46:59;;;;;;;8.52;1.75;;;18.40;99.90;;;;;;4996323;28;20030;-71
2023/09/19 01:49:38;;;;;;;7.70;1.40;;;18.30;99.90;;;;;;4989589;28;20022;-71
2023/09/19 01:52:13;;;;;;;4.88;1.73;;;18.30;99.90;;;;;;4989333;28;20154;-72
2023/09/19 01:54:55;;;;;;;4.20;1.00;;;18.20;99.90;;;;;;4997973;28;20023;-71
2023/09/19 01:57:29;;;;;;;4.43;1.33;;;18.10;99.90;;;;;;4993875;28;20103;-72
2023/09/19 02:00:06;;;;;;;6.43;1.25;;;18.10;99.90;;;;;;4988611;28;20038;-71
2023/09/19 02:02:37;;;;;;;3.92;1.63;;;18.10;99.90;;;;;;4987903;28;20045;-71
2023/09/19 02:05:04;;;;;;;3.70;1.25;;;18.00;99.90;;;;;;4989107;28;20050;-71
2023/09/19 02:07:31;;;;;;;3.58;0.88;;;18.10;99.90;;;;;;4988550;28;20464;-72
2023/09/19 02:10:01;;;;;;;6.43;1.30;;;18.10;99.90;;;;;;4989456;28;20054;-71
2023/09/19 02:12:27;;;;;;;2.80;1.38;;;17.90;99.90;;;;;;4988621;28;20354;-71
2023/09/19 02:14:53;;;;;;;3.05;1.10;;;17.90;99.90;;;;;;4995045;28;20457;-72
2023/09/19 02:17:19;;;;;;;5.32;1.30;;;17.90;99.90;;;;;;4994154;28;20061;-71
2023/09/19 02:19:45;;;;;;;2.88;1.10;;;17.90;99.90;;;;;;4989233;28;20049;-71
2023/09/19 02:22:10;;;;;;;2.28;0.98;;;17.90;99.90;;;;;;4988378;28;20480;-71
2023/09/19 02:24:39;;;;;;;3.45;1.08;;;17.90;99.90;;;;;;4996152;28;20078;-71
2023/09/19 02:27:05;;;;;;;3.33;1.30;;;17.80;99.90;;;;;;4993316;28;20101;-71
2023/09/19 02:29:34;;;;;;;2.75;1.10;;;17.60;99.90;;;;;;4994567;28;20084;-71
2023/09/19 02:32:01;;;;;;;4.95;1.25;;;17.60;99.90;;;;;;4992697;28;20494;-72
2023/09/19 02:34:27;;;;;;;4.18;1.30;;;17.60;99.90;;;;;;4993740;28;20027;-72
2023/09/19 02:36:54;;;;;;;2.47;0.70;;;17.60;99.90;;;;;;4990573;28;20495;-71
2023/09/19 02:39:20;;;;;;;4.30;0.80;;;17.70;99.90;;;;;;4993812;28;20389;-71
2023/09/19 02:41:46;;;;;;;3.33;1.20;;;17.70;99.90;;;;;;4994276;28;20049;-71
2023/09/19 02:44:12;;;;;;;2.47;0.90;;;17.60;99.90;;;;;;4997856;28;20125;-71
2023/09/19 02:46:37;;;;;;;1.77;0.75;;;17.60;99.90;;;;;;4995598;28;20118;-72
2023/09/19 02:49:06;;;;;;;3.78;1.15;;;17.70;99.90;;;;;;5003982;28;20026;-71
2023/09/19 02:51:32;;;;;;;5.75;1.30;;;17.60;99.90;;;;;;4993212;28;20026;-71
2023/09/19 02:53:59;;;;;;;2.92;1.10;;;17.60;99.90;;;;;;4997524;28;20072;-72
2023/09/19 02:56:25;;;;;;;3.38;0.98;;;17.60;99.90;;;;;;4996316;28;20034;-71
2023/09/19 02:58:51;;;;;;;3.53;0.95;;;17.70;99.90;;;;;;4992764;28;20870;-71
2023/09/19 03:01:18;;;;;;;10.88;1.35;;;17.60;99.90;;;;;;4998082;28;20503;-71
2023/09/19 03:03:44;;;;;;;2.78;0.93;;;17.30;99.90;;;;;;4997193;28;20029;-72
2023/09/19 03:06:12;;;;;;;5.70;1.80;;;17.20;99.90;;;;;;4995246;28;20395;-72
2023/09/19 03:08:39;;;;;;;4.28;1.02;;;17.30;99.90;;;;;;4992192;28;20109;-71
2023/09/19 03:11:06;;;;;;;4.30;1.58;;;17.30;99.90;;;;;;5002264;28;20435;-72
2023/09/19 03:13:32;;;;;;;5.65;1.20;;;17.30;99.90;;;;;;4988385;28;20022;-72
2023/09/19 03:15:58;;;;;;;2.08;1.00;;;17.20;99.90;;;;;;4990304;28;20026;-72
2023/09/19 03:18:26;;;;;;;3.00;1.10;;;17.30;99.90;;;;;;4992703;28;21100;-72
2023/09/19 03:20:55;;;;;;;3.25;1.20;;;17.40;99.90;;;;;;4987862;28;20088;-72
2023/09/19 03:23:22;;;;;;;2.30;1.05;;;17.50;99.90;;;;;;4989808;28;20048;-72
2023/09/19 03:25:48;;;;;;;3.70;1.20;;;17.50;99.90;;;;;;4999687;28;20041;-72
2023/09/19 03:28:15;;;;;;;4.32;1.13;;;17.60;99.90;;;;;;4994163;28;20117;-71
2023/09/19 03:30:41;;;;;;;2.60;1.13;;;17.50;99.90;;;;;;4996381;28;20049;-72
2023/09/19 03:33:08;;;;;;;5.50;1.25;;;17.50;99.90;;;;;;4991127;28;20022;-72
2023/09/19 03:35:34;;;;;;;3.28;1.00;;;17.30;99.90;;;;;;5005573;28;20038;-72
2023/09/19 03:38:00;;;;;;;2.47;1.10;;;17.30;99.90;;;;;;4996484;28;20117;-72
2023/09/19 03:40:26;;;;;;;4.60;1.08;;;17.20;99.90;;;;;;4995311;28;20105;-72
2023/09/19 03:42:51;;;;;;;4.00;1.05;;;17.40;99.90;;;;;;4990616;28;20432;-72
2023/09/19 03:45:18;;;;;;;4.63;0.85;;;17.30;99.90;;;;;;4995994;28;20038;-72
2023/09/19 03:47:44;;;;;;;3.28;1.00;;;17.20;99.90;;;;;;4995037;28;20044;-72
2023/09/19 03:50:15;;;;;;;2.97;1.00;;;17.20;99.90;;;;;;4989505;28;20034;-72
2023/09/19 03:52:40;;;;;;;4.78;1.00;;;17.10;99.90;;;;;;4993227;28;20057;-72
2023/09/19 03:55:06;;;;;;;5.20;1.30;;;17.30;99.90;;;;;;4992969;28;20023;-72
2023/09/19 03:57:32;;;;;;;3.25;1.13;;;17.20;99.90;;;;;;4992357;28;20124;-72
2023/09/19 03:59:58;;;;;;;2.58;0.85;;;17.10;99.90;;;;;;4987977;28;20038;-72
2023/09/19 04:02:24;;;;;;;2.97;1.17;;;17.20;99.90;;;;;;4990342;28;20065;-72
2023/09/19 04:04:53;;;;;;;3.28;0.77;;;17.20;99.90;;;;;;4994505;28;20121;-71
2023/09/19 04:07:22;;;;;;;2.58;1.00;;;17.10;99.90;;;;;;4997221;28;20042;-72
2023/09/19 04:09:49;;;;;;;2.53;0.77;;;17.10;99.90;;;;;;4996330;28;20038;-72
2023/09/19 04:12:16;;;;;;;2.85;0.90;;;17.20;99.90;;;;;;5001354;28;20574;-72
2023/09/19 04:14:42;;;;;;;4.32;0.93;;;17.20;99.90;;;;;;4992357;28;20570;-72
2023/09/19 04:17:10;;;;;;;2.22;1.15;;;17.10;99.90;;;;;;4998351;28;20464;-72
2023/09/19 04:19:36;;;;;;;4.50;1.25;;;17.10;99.90;;;;;;5001526;28;20075;-72
2023/09/19 04:22:01;;;;;;;4.22;1.20;;;16.90;99.90;;;;;;4992712;28;20080;-72
2023/09/19 04:24:27;;;;;;;2.53;0.98;;;16.90;99.90;;;;;;4993975;28;20048;-72
2023/09/19 04:26:53;;;;;;;4.72;1.10;;;16.90;99.90;;;;;;4999517;28;20034;-72
2023/09/19 04:29:19;;;;;;;3.15;1.33;;;17.00;99.90;;;;;;4989293;28;20104;-71
2023/09/19 04:31:45;;;;;;;2.85;1.10;;;16.90;99.90;;;;;;4989672;28;20088;-71
2023/09/19 04:34:17;;;;;;;2.17;0.85;;;17.10;99.90;;;;;;4994307;28;20033;-71
2023/09/19 04:36:43;;;;;;;2.22;1.02;;;17.20;99.90;;;;;;4993283;28;20057;-71
2023/09/19 04:39:10;;;;;;;2.97;0.80;;;17.30;99.90;;;;;;5001632;28;20380;-71
2023/09/19 04:41:41;;;;;;;8.70;1.63;;;17.30;99.90;;;;;;4987205;28;20050;-72
2023/09/19 04:44:07;;;;;;;3.20;1.17;;;17.20;99.90;;;;;;4989264;28;20480;-72
2023/09/19 04:46:34;;;;;;;4.90;1.10;;;17.10;99.90;;;;;;4989567;28;20540;-72
2023/09/19 04:49:00;;;;;;;4.30;1.10;;;17.20;99.90;;;;;;4988156;28;20800;-72
2023/09/19 04:51:29;;;;;;;3.35;1.17;;;17.10;99.90;;;;;;4989669;28;20071;-72
2023/09/19 04:53:54;;;;;;;3.88;1.20;;;17.00;99.90;;;;;;4992661;28;20048;-72
2023/09/19 04:56:21;;;;;;;3.63;0.80;;;16.90;99.90;;;;;;4987059;28;20465;-72
2023/09/19 04:58:46;;;;;;;2.95;0.85;;;16.90;99.90;;;;;;4987999;28;20510;-72
2023/09/19 05:01:14;;;;;;;3.60;1.77;;;17.00;99.90;;;;;;4989118;28;20101;-72
2023/09/19 05:03:40;;;;;;;2.97;0.80;;;17.00;99.90;;;;;;4988399;28;20607;-72
2023/09/19 05:06:06;;;;;;;4.05;0.90;;;17.00;99.90;;;;;;4993242;28;20030;-72
2023/09/19 05:08:31;;;;;;;4.38;0.80;;;16.90;99.90;;;;;;4993031;28;20673;-72
2023/09/19 05:10:57;;;;;;;4.63;1.25;;;16.70;99.90;;;;;;4996238;28;20034;-71
2023/09/19 05:13:24;;;;;;;6.32;1.63;;;16.80;99.90;;;;;;4996041;28;20029;-72
2023/09/19 05:15:52;;;;;;;1.83;0.80;;;16.80;99.90;;;;;;4993291;28;20038;-72
2023/09/19 05:18:18;;;;;;;3.38;0.88;;;16.90;99.90;;;;;;4998060;28;20041;-73
2023/09/19 05:20:44;;;;;;;2.55;0.70;;;16.90;99.90;;;;;;4987456;28;20034;-74
2023/09/19 05:23:12;;;;;;;4.93;0.88;;;16.90;99.90;;;;;;4999794;28;20363;-72
2023/09/19 05:25:39;;;;;;;7.72;1.05;;;16.90;99.90;;;;;;4997182;28;20021;-72
2023/09/19 05:28:09;;;;;;;3.78;1.23;;;16.60;99.90;;;;;;4988835;28;20029;-72
2023/09/19 05:30:38;;;;;;;1.33;0.70;;;16.60;99.90;;;;;;4991192;28;20504;-73
2023/09/19 05:33:05;;;;;;;2.72;1.05;;;16.70;99.90;;;;;;4985195;28;20038;-73
2023/09/19 05:35:31;;;;;;;3.05;1.20;;;16.70;99.90;;;;;;4986640;28;20637;-73
2023/09/19 05:37:57;;;;;;;2.65;0.90;;;16.60;99.90;;;;;;4993159;28;20587;-73
2023/09/19 05:40:24;;;;;;;2.83;0.82;;;16.70;99.90;;;;;;4997227;28;20174;-73
2023/09/19 05:42:50;;;;;;;4.45;1.17;;;16.70;99.90;;;;;;4994876;28;20060;-73
2023/09/19 05:45:22;;;;;;;5.10;1.00;;;16.80;99.90;;;;;;4985796;28;20037;-72
2023/09/19 05:47:48;;;;;;;6.50;1.25;;;16.80;99.90;;;;;;4986042;28;20030;-73
2023/09/19 05:50:16;;;;;;;1.65;0.77;;;16.80;99.90;;;;;;4988053;28;20128;-72
2023/09/19 05:52:42;;;;;;;3.70;1.05;;;16.60;99.90;;;;;;4990126;28;20030;-72
2023/09/19 05:55:08;;;;;;;2.72;0.85;;;16.70;99.90;;;;;;4990821;28;20044;-73
2023/09/19 05:57:42;;;;;;;5.38;1.38;;;16.70;99.90;;;;;;4999124;28;20480;-72
2023/09/19 06:00:11;;;;;;;2.15;0.60;;;16.80;99.90;;;;;;4992907;28;20031;-72
2023/09/19 06:02:40;;;;;;;10.23;1.55;;;16.70;99.90;;;;;;4994366;28;20046;-72
2023/09/19 06:05:06;;;;;;;3.80;1.30;;;16.80;99.90;;;;;;4988933;28;20084;-72
2023/09/19 06:12:46;;;;;;;4.93;1.33;;;16.90;99.90;;;;;;5722467;23;20050;-72
2023/09/19 06:15:18;;;;;;;1.65;0.80;;;16.90;99.90;;;;;;4988530;28;20026;-71
2023/09/19 06:17:55;;;;;;;4.15;1.15;;;16.90;99.90;;;;;;4983834;28;20085;-71
2023/09/19 06:20:22;;;;;;;3.42;1.35;;;16.80;99.90;;;;;;4990016;28;20030;-71
2023/09/19 06:22:48;;;;;;;5.28;1.10;;;17.00;99.90;;;;;;4989241;28;20364;-70
2023/09/19 06:25:21;;;;;;;4.70;1.23;;;16.90;99.90;;;;;;4993987;28;20488;-70
2023/09/19 06:27:48;;;;;;;3.55;0.80;;;17.00;99.90;;;;;;4996908;28;20029;-71
2023/09/19 06:30:15;;;;;;;4.13;0.90;;;16.80;99.90;;;;;;4992000;28;20026;-71
2023/09/19 06:32:44;;;;;;;2.45;0.98;;;16.80;99.90;;;;;;4987272;28;20062;-71
2023/09/19 06:35:15;;;;;;;2.45;0.93;;;16.80;99.90;;;;;;4985329;28;20038;-71
2023/09/19 06:37:42;;;;;;;3.08;0.90;;;16.90;99.90;;;;;;4987520;28;20030;-70
2023/09/19 06:40:14;;;;;;;2.60;1.00;;;17.00;99.90;;;;;;4987256;28;20048;-71
2023/09/19 06:43:06;;;;;;;2.92;1.10;;;17.00;99.90;;;;;;4993420;28;20062;-70
2023/09/19 06:45:32;;;;;;;3.10;0.68;;;17.20;99.90;;;;;;4995821;28;20132;-71
2023/09/19 06:47:59;;;;;;;4.18;1.08;;;17.20;99.90;;;;;;4991836;28;20146;-70
2023/09/19 06:50:26;;;;;;;3.40;1.17;;;17.20;99.90;;;;;;4995973;28;20034;-71
2023/09/19 06:52:53;;;;;;;1.50;0.60;;;17.20;99.90;;;;;;4993924;28;20034;-70
2023/09/19 06:55:20;;;;;;;2.47;0.95;;;17.20;99.90;;;;;;4986306;28;20030;-70
2023/09/19 06:57:46;;;;;;;2.90;0.93;;;17.30;99.90;;;;;;4988103;28;20121;-71
2023/09/19 07:00:21;;;;;;;1.63;0.60;;;17.40;99.90;;;;;;4993527;28;20042;-71
2023/09/19 07:03:04;;;;;;;3.38;0.95;;;17.50;99.90;;;;;;4992135;28;20655;-72
2023/09/19 07:05:36;;;;;;;2.53;0.90;;;17.40;99.90;;;;;;4983699;28;20679;-71
2023/09/19 07:08:01;;;;;;;5.93;1.00;;;17.50;99.90;;;;;;4996598;28;20038;-71
2023/09/19 07:10:28;;;;;;;2.67;0.50;;;17.50;99.90;;;;;;4983342;28;20087;-71
2023/09/19 07:13:02;;;;;;;4.20;0.70;;;17.50;99.90;;;;;;4993237;28;20136;-71
2023/09/19 07:15:28;;;;;;;;;;;17.60;99.90;;;;;;4993073;28;20034;-71
2023/09/19 07:17:55;;;;;;;1.45;0.80;;;17.60;99.90;;;;;;4990795;28;19917;-71
2023/09/19 07:20:23;;;;;;;1.20;0.43;;;17.60;99.90;;;;;;4994497;28;20054;-72
2023/09/19 07:22:51;;;;;;;3.28;0.68;;;17.60;99.90;;;;;;4997038;28;20038;-70
2023/09/19 07:25:17;;;;;;;1.80;0.70;;;17.70;99.90;;;;;;5005051;28;20598;-70
2023/09/19 07:27:43;;;;;;;2.53;0.70;;;17.80;99.90;;;;;;4996628;28;20057;-71
2023/09/19 07:30:10;;;;;;;2.85;0.70;;;17.80;99.90;;;;;;4996693;28;20065;-72
2023/09/19 07:32:38;;;;;;;4.28;0.70;;;17.90;99.90;;;;;;4995663;28;20109;-71
2023/09/19 07:35:08;;;;;;;3.28;0.70;;;17.90;99.90;;;;;;4995609;28;20061;-72
2023/09/19 07:37:35;;;;;;;1.65;0.85;;;17.90;99.90;;;;;;4989235;28;20040;-71
2023/09/19 07:40:09;;;;;;;1.40;0.47;;;17.80;99.90;;;;;;4996544;28;20504;-73
2023/09/19 07:42:36;;;;;;;5.03;0.85;;;17.90;99.90;;;;;;5001504;28;20030;-72
2023/09/19 07:45:03;;;;;;;2.50;0.70;;;17.90;99.90;;;;;;5000263;28;20426;-73
2023/09/19 07:47:30;;;;;;;2.03;0.80;;;18.10;99.90;;;;;;5006840;28;20045;-73
2023/09/19 07:49:56;;;;;;;5.70;1.00;;;18.00;99.90;;;;;;4990076;28;20033;-72
2023/09/19 07:52:22;;;;;;;3.72;1.50;;;17.90;99.90;;;;;;4999588;28;20121;-72
2023/09/19 07:54:49;;;;;;;1.85;0.57;;;17.90;99.90;;;;;;4991570;28;20029;-72
2023/09/19 07:57:15;;;;;;;1.95;0.77;;;17.90;99.90;;;;;;4995304;28;20104;-72
2023/09/19 07:59:42;;;;;;;3.17;1.08;;;18.00;99.90;;;;;;4996484;28;20482;-72
2023/09/19 08:02:09;;;;;;;3.53;1.15;;;18.10;99.90;;;;;;4989657;28;20105;-72
2023/09/19 08:04:35;;;;;;;6.18;0.98;;;18.20;99.90;;;;;;4988846;28;20487;-72
2023/09/19 08:07:03;;;;;;;2.83;0.93;;;18.30;99.90;;;;;;4989863;28;20022;-72
2023/09/19 08:09:33;;;;;;;1.63;0.63;;;18.40;99.90;;;;;;4990157;28;20038;-72
2023/09/19 08:12:03;;;;;;;2.00;1.10;;;18.50;99.90;;;;;;4994323;28;20029;-72
2023/09/19 08:14:29;;;;;;;3.30;0.70;;;18.60;99.90;;;;;;4994052;28;20044;-72
2023/09/19 08:16:58;;;;;;;2.47;1.13;;;18.60;99.90;;;;;;4991161;28;20034;-71
2023/09/19 08:19:28;;;;;;;2.47;0.63;;;18.60;99.90;;;;;;4991767;28;20125;-72
2023/09/19 08:21:58;;;;;;;3.80;0.70;;;18.60;99.90;;;;;;4991181;28;20034;-71
2023/09/19 08:24:28;;;;;;;1.77;0.70;;;18.70;99.90;;;;;;4988276;28;20050;-72
2023/09/19 08:26:55;;;;;;;2.72;0.77;;;18.80;99.90;;;;;;4986318;28;20084;-72
2023/09/19 08:29:27;;;;;;;2.78;0.70;;;19.00;99.90;;;;;;4986653;28;20026;-72
2023/09/19 08:32:02;;;;;;;6.38;1.27;;;19.00;99.90;;;;;;4993884;28;20121;-71
2023/09/19 08:34:28;;;;;;;53.88;6.18;;;18.90;99.90;;;;;;4984879;28;20035;-72
2023/09/19 08:36:57;;;;;;;5.22;0.90;;;19.00;99.90;;;;;;4983783;28;20089;-72
2023/09/19 08:39:24;;;;;;;3.28;0.75;;;18.90;99.90;;;;;;4982824;28;20026;-72
2023/09/19 08:41:56;;;;;;;4.30;0.70;;;18.90;99.90;;;;;;4991373;28;20053;-71
2023/09/19 08:44:22;;;;;;;1.88;0.82;;;18.80;99.90;;;;;;4983964;28;20496;-72
2023/09/19 08:46:51;;;;;;;4.97;0.80;;;19.00;99.90;;;;;;4984708;28;20089;-72
2023/09/19 08:49:31;;;;;;;4.47;0.82;;;19.50;99.90;;;;;;4985322;28;20062;-72
2023/09/19 08:52:16;;;;;;;6.65;1.50;;;19.40;99.90;;;;;;4985159;28;20114;-72
2023/09/19 08:54:43;;;;;;;8.15;0.90;;;19.30;99.90;;;;;;4986841;28;20045;-72
2023/09/19 08:57:11;;;;;;;2.88;0.98;;;19.30;99.90;;;;;;4987142;28;20029;-72
2023/09/19 08:59:41;;;;;;;2.20;0.98;;;19.30;99.90;;;;;;4988266;28;20357;-71
2023/09/19 09:02:12;;;;;;;2.30;0.80;;;19.30;99.90;;;;;;4989009;28;20113;-71
2023/09/19 09:04:40;;;;;;;6.10;1.20;;;19.30;99.90;;;;;;4993200;28;20046;-71
2023/09/19 09:07:13;;;;;;;2.83;1.00;;;19.40;99.90;;;;;;4987521;28;20538;-71
2023/09/19 09:09:43;;;;;;;2.00;0.68;;;20.10;99.90;;;;;;4985594;28;20105;-72
2023/09/19 09:12:13;;;;;;;2.40;0.77;;;23.90;99.90;;;;;;4995924;28;20046;-71
2023/09/19 09:14:40;;;;;;;6.97;0.70;;;26.10;99.90;;;;;;4986600;28;20105;-72
2023/09/19 09:17:07;;;;;;;1.75;0.90;;;27.10;99.00;;;;;;4985756;28;20037;-72
2023/09/19 09:19:33;;;;;;;3.00;1.20;;;27.70;98.00;;;;;;4985523;28;20501;-72
2023/09/19 09:22:08;;;;;;;4.13;0.80;;;28.50;96.80;;;;;;4986246;28;20048;-72
2023/09/19 09:24:36;;;;;;;2.55;0.68;;;27.70;96.20;;;;;;4987292;28;20061;-72
2023/09/19 09:27:10;;;;;;;7.43;1.10;;;26.90;97.60;;;;;;4986904;28;20070;-72
2023/09/19 09:29:48;;;;;;;2.15;0.68;;;27.60;97.10;;;;;;4986190;28;20603;-72
2023/09/19 09:32:24;;;;;;;2.22;0.50;;;27.30;96.80;;;;;;4989340;28;20902;-71
2023/09/19 09:34:53;;;;;;;2.17;0.90;;;24.80;96.80;;;;;;4985888;28;20023;-72
2023/09/19 09:37:20;;;;;;;2.20;0.65;;;23.80;98.70;;;;;;4988315;28;20084;-72
2023/09/19 09:39:57;;;;;;;1.50;0.60;;;22.70;99.90;;;;;;4986077;28;20041;-72
2023/09/19 09:42:35;;;;;;;2.13;0.90;;;21.90;99.90;;;;;;4986886;28;20527;-72
2023/09/19 09:45:12;;;;;;;4.90;1.25;;;21.60;99.90;;;;;;4985776;28;20137;-72
2023/09/19 09:47:55;;;;;;;3.50;0.80;;;21.50;99.90;;;;;;4988785;28;20354;-72
2023/09/19 09:50:29;;;;;;;4.90;1.05;;;21.20;99.90;;;;;;4989362;28;20038;-72
2023/09/19 09:53:06;;;;;;;5.32;1.40;;;21.40;99.90;;;;;;4984572;28;20033;-71
2023/09/19 09:56:02;;;;;;;1.55;0.65;;;21.50;99.90;;;;;;4984727;28;20061;-71
2023/09/19 09:58:35;;;;;;;3.63;0.70;;;21.40;99.90;;;;;;4988110;28;20041;-71
2023/09/19 10:01:10;;;;;;;4.57;0.82;;;21.50;99.90;;;;;;4986234;28;20026;-71
2023/09/19 10:03:41;;;;;;;6.72;0.88;;;21.30;99.90;;;;;;4987189;28;20319;-71
2023/09/19 10:09:11;;;;;;;2.67;0.77;;;21.60;99.90;;;;;;4985702;28;20129;-71
2023/09/19 10:11:54;;;;;;;3.47;0.68;;;21.70;99.90;;;;;;4984330;28;21197;-71
2023/09/19 10:14:24;;;;;;;2.58;0.70;;;21.80;99.90;;;;;;4985933;28;20080;-71
2023/09/19 10:16:55;;;;;;;4.43;0.90;;;21.70;99.90;;;;;;4991445;28;20041;-71
2023/09/19 10:19:50;;;;;;;2.03;0.80;;;21.70;99.90;;;;;;4984666;28;20120;-72
2023/09/19 10:22:20;;;;;;;1.80;0.90;;;21.90;99.90;;;;;;4985561;28;20734;-71
2023/09/19 10:24:52;;;;;;;2.50;1.00;;;22.10;99.90;;;;;;4990811;28;20038;-71
2023/09/19 10:27:19;;;;;;;4.25;0.93;;;22.10;99.90;;;;;;4991229;28;20035;-71
2023/09/19 10:29:50;;;;;;;3.03;0.90;;;22.20;99.90;;;;;;4984462;28;20109;-71
2023/09/19 10:32:19;;;;;;;1.63;0.73;;;22.30;99.90;;;;;;4985135;28;20070;-71
2023/09/19 10:34:47;;;;;;;1.65;0.60;;;22.30;99.90;;;;;;4984402;28;20034;-71
2023/09/19 10:37:15;;;;;;;4.25;1.10;;;22.50;99.90;;;;;;4984228;28;20824;-71
2023/09/19 10:39:45;;;;;;;1.70;0.65;;;22.70;99.90;;;;;;4991797;28;20085;-71
2023/09/19 10:42:17;;;;;;;4.85;0.63;;;22.60;99.90;;;;;;4989046;28;20547;-71
2023/09/19 10:44:45;;;;;;;3.22;0.85;;;22.50;99.90;;;;;;4984758;28;20046;-71
2023/09/19 10:47:11;;;;;;;3.85;1.40;;;22.70;99.90;;;;;;4985397;28;20033;-73
2023/09/19 10:49:46;;;;;;;2.83;0.60;;;23.00;99.90;;;;;;4984891;28;20030;-73
2023/09/19 10:52:18;;;;;;;2.28;0.70;;;22.90;99.90;;;;;;4985622;28;20049;-73
2023/09/19 10:54:50;;;;;;;4.18;0.80;;;23.00;99.90;;;;;;4986405;28;20040;-72
2023/09/19 10:57:27;;;;;;;1.50;0.80;;;22.90;99.90;;;;;;4985447;28;20446;-73
2023/09/19 11:03:18;;;;;;;4.25;0.90;;;23.00;99.90;;;;;;4990694;28;20061;-73
2023/09/19 11:06:04;;;;;;;1.27;0.90;;;23.00;99.90;;;;;;4995578;28;20041;-73
2023/09/19 11:08:51;;;;;;;2.92;0.90;;;23.30;99.90;;;;;;4990458;28;20030;-73
2023/09/19 11:11:35;;;;;;;3.35;1.13;;;23.40;99.90;;;;;;4982503;28;20034;-72
2023/09/19 11:14:25;;;;;;;3.75;0.55;;;23.50;99.90;;;;;;4996846;28;20113;-72
2023/09/19 11:17:07;;;;;;;2.95;0.70;;;23.70;99.90;;;;;;4988595;28;20031;-73
2023/09/19 11:22:54;;;;;;;3.95;1.20;;;23.80;99.90;;;;;;4988312;28;20042;-73
2023/09/19 11:28:07;;;;;;;2.03;0.80;;;23.80;99.90;;;;;;4994871;28;20034;-72
2023/09/19 11:30:37;;;;;;;2.17;0.80;;;24.10;99.90;;;;;;4989972;28;20472;-73
2023/09/19 11:33:33;;;;;;;2.70;1.10;;;23.80;99.90;;;;;;4988714;28;20033;-73
2023/09/19 11:36:15;;;;;;;2.53;1.30;;;23.90;99.90;;;;;;4988398;28;20049;-72
2023/09/19 11:38:49;;;;;;;2.05;0.73;;;24.00;99.90;;;;;;4995336;28;20665;-72
2023/09/19 11:41:29;;;;;;;1.73;0.90;;;24.00;99.90;;;;;;4987589;28;20030;-73
2023/09/19 11:44:00;;;;;;;22.65;1.95;;;24.00;99.90;;;;;;4986816;28;20121;-72
2023/09/19 11:46:48;;;;;;;2.47;0.70;;;24.10;99.90;;;;;;4991352;28;20470;-72
2023/09/19 11:49:20;;;;;;;4.78;1.00;;;24.30;99.90;;;;;;4991701;28;20104;-73
2023/09/19 11:51:47;;;;;;;1.85;0.60;;;24.50;99.90;;;;;;4988192;28;20026;-73
2023/09/19 11:54:21;;;;;;;2.72;1.00;;;24.70;99.90;;;;;;4987976;28;20120;-72
2023/09/19 11:56:53;;;;;;;2.92;0.88;;;24.80;99.90;;;;;;4985654;28;20034;-72
2023/09/19 11:59:24;;;;;;;2.28;0.70;;;24.50;99.90;;;;;;4985327;28;20026;-73
2023/09/19 12:01:57;;;;;;;2.83;0.90;;;24.40;99.90;;;;;;4991929;28;20175;-73
2023/09/19 12:04:38;;;;;;;3.28;0.85;;;24.60;99.90;;;;;;4986708;28;20140;-73
2023/09/19 12:07:11;;;;;;;4.45;1.00;;;24.70;99.90;;;;;;4988299;28;20414;-72
2023/09/19 12:09:42;;;;;;;3.15;0.98;;;24.90;99.90;;;;;;4984701;28;20038;-72
2023/09/19 12:12:09;;;;;;;3.15;1.17;;;24.90;99.90;;;;;;4984812;28;20038;-73
2023/09/19 12:14:35;;;;;;;4.18;1.10;;;24.60;99.90;;;;;;4983605;28;20050;-72
2023/09/19 12:17:03;;;;;;;2.63;0.90;;;24.60;99.90;;;;;;4985867;28;20345;-73
2023/09/19 12:19:29;;;;;;;2.83;0.98;;;24.80;99.90;;;;;;4990622;28;20602;-72
2023/09/19 12:21:59;;;;;;;4.00;0.85;;;24.80;99.90;;;;;;4985234;28;20026;-72
2023/09/19 12:24:29;;;;;;;1.20;0.60;;;24.90;99.90;;;;;;4995459;28;20039;-73
2023/09/19 12:27:01;;;;;;;4.32;0.90;;;25.00;99.90;;;;;;4985730;28;20026;-73
2023/09/19 12:29:27;;;;;;;2.58;0.88;;;25.10;99.90;;;;;;4983398;28;20105;-72
2023/09/19 12:31:57;;;;;;;2.25;0.80;;;25.10;99.90;;;;;;4991075;28;20444;-73
2023/09/19 12:34:27;;;;;;;3.03;0.93;;;25.00;99.90;;;;;;4990158;28;20611;-73
2023/09/19 12:37:11;;;;;;;3.97;1.48;;;25.20;99.90;;;;;;4984428;28;20034;-72
2023/09/19 12:39:41;;;;;;;3.85;1.10;;;25.40;99.70;;;;;;4986850;28;20054;-73
2023/09/19 12:42:12;;;;;;;1.20;0.65;;;25.40;99.90;;;;;;4987566;28;20030;-73
2023/09/19 12:44:45;;;;;;;3.85;1.48;;;25.50;99.50;;;;;;4991094;28;20026;-73
2023/09/19 12:47:17;;;;;;;3.50;0.80;;;25.40;99.90;;;;;;4990950;28;20041;-73
2023/09/19 12:50:06;;;;;;;2.42;0.98;;;25.50;99.90;;;;;;4984062;28;20499;-73
2023/09/19 12:52:38;;;;;;;1.23;0.60;;;25.70;99.90;;;;;;4983490;28;20026;-73
2023/09/19 12:55:05;;;;;;;4.00;1.02;;;25.80;99.90;;;;;;4984039;28;20030;-73
2023/09/19 12:57:34;;;;;;;2.38;1.08;;;25.60;99.70;;;;;;4988878;28;20518;-73
2023/09/19 13:00:05;;;;;;;4.15;1.38;;;25.40;99.90;;;;;;4989812;28;20117;-73
2023/09/19 13:02:32;;;;;;;4.20;0.90;;;25.70;99.90;;;;;;4982757;28;20088;-73
2023/09/19 13:05:04;;;;;;;4.60;0.80;;;25.70;99.90;;;;;;4984718;28;20084;-73
2023/09/19 13:07:46;;;;;;;3.30;1.27;;;25.70;99.90;;;;;;4984365;28;20026;-73
2023/09/19 13:10:15;;;;;;;3.25;1.05;;;25.90;99.90;;;;;;4991099;28;20652;-73
2023/09/19 13:12:46;;;;;;;2.65;0.80;;;26.10;99.90;;;;;;4983475;28;20068;-73
2023/09/19 13:15:15;;;;;;;3.25;1.10;;;26.10;99.80;;;;;;4982529;28;20037;-73
2023/09/19 13:17:44;;;;;;;3.58;1.02;;;25.90;99.70;;;;;;4983102;28;20026;-73
2023/09/19 13:20:27;;;;;;;5.25;1.13;;;26.10;99.60;;;;;;4984640;28;20030;-72